Terminal Aerodrome Forecast
Issued by NWS

Home | Current Version | Previous Version | Text Only | Print | Product List | Glossary On
Versions: 1 2 3 4 5 6 7 8 9 10 11 12 13 14 15 16
840
FTUS43 KTOP 291140
TAFFOE
TAF
KFOE 291140Z 2912/3012 22011KT 4SM -TSRA BKN035CB
     FM291300 19013KT P6SM VCTS BKN080CB
     FM291500 19012G20KT P6SM BKN150
     FM292100 18011KT P6SM VCTS BKN060CB=

USA.gov is the U.S. government's official web portal to all federal, state and local government web resources and services.